createdAt,value
2022-10-09T00:14:15.335Z,58.50
2022-10-09T00:36:02.949Z,66.69
2022-10-09T00:57:49.443Z,59.08
2022-10-09T01:19:51.412Z,59.79
2022-10-09T01:41:38.051Z,60.64
2022-10-09T02:03:27.200Z,60.11
2022-10-09T02:25:13.877Z,59.83
2022-10-09T02:46:59.759Z,65.75
2022-10-09T03:08:47.559Z,60.61
2022-10-09T03:30:33.268Z,60.21
2022-10-09T03:52:19.011Z,64.25
2022-10-09T04:14:05.149Z,58.43
2022-10-09T04:35:53.624Z,62.12
2022-10-09T04:57:39.730Z,61.37
2022-10-09T05:26:03.626Z,61.99
2022-10-09T05:47:49.413Z,61.55
2022-10-09T06:26:10.515Z,56.16
2022-10-09T06:47:56.394Z,65.06
2022-10-09T07:09:43.215Z,58.23
2022-10-09T07:31:29.396Z,61.44
2022-10-09T07:53:15.301Z,58.68
2022-10-09T08:15:01.024Z,52.13
2022-10-09T08:36:47.191Z,30.75
2022-10-09T08:58:35.956Z,26.96
2022-10-09T09:20:27.053Z,21.10
2022-10-09T09:42:18.809Z,19.77
2022-10-09T10:26:13.690Z,25.63
2022-10-09T10:48:03.515Z,34.05
2022-10-09T11:09:59.691Z,39.79
2022-10-09T11:31:51.716Z,39.59
2022-10-09T11:53:40.088Z,42.97
2022-10-09T12:15:29.673Z,42.09
2022-10-09T12:37:18.526Z,43.42
2022-10-09T12:59:07.045Z,43.77
2022-10-09T13:21:03.861Z,44.83
2022-10-09T13:42:55.267Z,45.14
2022-10-09T14:04:41.366Z,45.09
2022-10-09T14:26:28.060Z,45.28
2022-10-09T14:48:13.879Z,45.90
2022-10-09T15:09:59.632Z,47.28
2022-10-09T15:31:45.356Z,48.84
2022-10-09T15:53:31.164Z,49.70
2022-10-09T16:15:16.899Z,51.97
2022-10-09T16:37:03.277Z,54.30
2022-10-09T16:58:49.558Z,56.62
2022-10-09T17:20:36.140Z,69.06
2022-10-09T17:48:18.776Z,48.95
2022-10-09T18:10:05.023Z,52.75
2022-10-09T18:31:55.840Z,56.22
2022-10-09T18:53:43.589Z,69.80
2022-10-09T19:15:29.494Z,49.27
2022-10-09T19:37:15.512Z,52.55
2022-10-09T19:59:03.250Z,65.92
2022-10-09T20:20:51.112Z,49.82
2022-10-09T20:42:36.829Z,53.23
2022-10-09T21:04:22.683Z,66.80
2022-10-09T21:26:12.043Z,50.76
2022-10-09T21:47:58.004Z,54.46
2022-10-09T22:26:12.709Z,51.22
2022-10-09T22:47:59.455Z,54.83
2022-10-09T23:10:00.619Z,70.36
2022-10-09T23:31:46.994Z,50.68
2022-10-09T23:53:32.799Z,55.48
